Destin, Florida
Current Conditions -  °F | °C
As of 2:53 PM on Thursday 20 Nov 2014 (Local Time) from KDTS Reporting Station
Clear Clear  
Wind Chill: 64°   Ceiling: Unl
Heat Index: 64°   Visibility: 10mi
Dew Point: 45°   Wind: 6mph
Humidity: 50%   Direction: 210°SSW
Pressure: 30.22"   Gusts: NA
Location:  30.39°N, 86.49°W
Report Text: KDTS 202053Z AUTO 21005KT 10SM CLR 18/07 A3022 RMK AO2 SLP234 T01780072 56018 TSNO
Loading
Personal Weather Stations






























Interactive Weather Map New forecast layout! Learn more

10-Day Weather Forecast

Advertisements
Track Severe Weather on mobile